createdAt,value
2022-12-11T00:01:24.901Z,100288.13
2022-12-11T00:03:51.060Z,100293.16
2022-12-11T00:06:17.219Z,100293.97
2022-12-11T00:08:43.336Z,100294.72
2022-12-11T00:11:09.530Z,100293.84
2022-12-11T00:13:35.697Z,100295.47
2022-12-11T00:16:01.907Z,100291.25
2022-12-11T00:18:28.097Z,100287.84
2022-12-11T00:20:54.330Z,100298.00
2022-12-11T00:23:20.545Z,100299.75
2022-12-11T00:25:46.700Z,100302.38
2022-12-11T00:28:12.858Z,100301.69
2022-12-11T00:30:40.437Z,100302.66
2022-12-11T00:33:06.632Z,100310.41
2022-12-11T00:35:32.748Z,100299.47
2022-12-11T00:37:58.870Z,100295.34
2022-12-11T00:40:25.070Z,100298.84
2022-12-11T00:42:51.205Z,100289.63
2022-12-11T00:45:17.427Z,100289.66
2022-12-11T00:47:43.610Z,100289.72
2022-12-11T00:50:09.759Z,100292.31
2022-12-11T00:52:35.946Z,100293.22
2022-12-11T00:55:02.107Z,100295.81
2022-12-11T00:57:28.261Z,100294.16
2022-12-11T00:59:54.442Z,100284.91
2022-12-11T01:02:20.587Z,100284.06
2022-12-11T01:04:46.738Z,100285.00
2022-12-11T01:07:12.889Z,100296.03
2022-12-11T01:09:39.082Z,100291.78
2022-12-11T01:12:05.283Z,100291.81
2022-12-11T01:14:31.435Z,100292.66
2022-12-11T01:16:57.599Z,100285.88
2022-12-11T01:19:23.792Z,100292.72
2022-12-11T01:21:49.911Z,100287.66
2022-12-11T01:24:16.083Z,100281.69
2022-12-11T01:26:42.205Z,100286.78
2022-12-11T01:29:08.363Z,100288.50
2022-12-11T01:31:34.552Z,100280.06
2022-12-11T01:34:00.726Z,100288.59
2022-12-11T01:36:26.919Z,100282.63
2022-12-11T01:38:53.061Z,100287.72
2022-12-11T01:41:19.219Z,100284.34
2022-12-11T01:43:45.389Z,100279.25
2022-12-11T01:46:11.534Z,100272.47
2022-12-11T01:48:42.054Z,100279.25
2022-12-11T01:51:08.540Z,100279.25
2022-12-11T01:53:34.728Z,100285.19
2022-12-11T01:56:00.885Z,100268.16
2022-12-11T01:58:27.016Z,100273.28
2022-12-11T02:00:53.257Z,100296.25
2022-12-11T02:03:19.502Z,100286.91
2022-12-11T02:05:45.694Z,100283.50
2022-12-11T02:08:11.893Z,100291.16
2022-12-11T02:10:38.062Z,100286.06
2022-12-11T02:13:04.244Z,100295.44
2022-12-11T02:15:30.414Z,100304.81
2022-12-11T02:17:56.637Z,100280.94
2022-12-11T02:20:22.776Z,100277.56
2022-12-11T02:22:48.920Z,100285.16
2022-12-11T02:25:15.067Z,100291.06
2022-12-11T02:27:41.249Z,100307.16
2022-12-11T02:30:07.425Z,100325.88
2022-12-11T02:32:33.561Z,100313.94
2022-12-11T02:34:59.724Z,100316.47
2022-12-11T02:37:25.858Z,100321.53
2022-12-11T02:39:52.032Z,100311.31
2022-12-11T02:42:18.186Z,100313.84
2022-12-11T02:44:44.288Z,100315.53
2022-12-11T02:47:10.449Z,100312.97
2022-12-11T02:49:36.618Z,100315.53
2022-12-11T02:52:02.749Z,100310.41
2022-12-11T02:54:28.908Z,100309.53
2022-12-11T02:56:55.134Z,100310.44
2022-12-11T02:59:21.294Z,100308.72
2022-12-11T03:01:47.522Z,100303.63
2022-12-11T03:04:13.732Z,100301.19
2022-12-11T03:06:39.877Z,100285.09
2022-12-11T03:09:05.983Z,100282.53
2022-12-11T03:11:32.100Z,100282.47
2022-12-11T03:13:58.293Z,100280.78
2022-12-11T03:16:24.498Z,100284.13
2022-12-11T03:18:50.676Z,100299.44
2022-12-11T03:21:16.832Z,100306.22
2022-12-11T03:23:42.970Z,100299.44
2022-12-11T03:26:09.074Z,100308.78
2022-12-11T03:28:35.240Z,100303.72
2022-12-11T03:31:01.436Z,100303.72
2022-12-11T03:33:27.632Z,100291.00
2022-12-11T03:35:53.799Z,100300.31
2022-12-11T03:38:19.995Z,100299.53
2022-12-11T03:40:46.185Z,100307.19
2022-12-11T03:43:12.331Z,100310.66
2022-12-11T03:45:38.486Z,100316.66
2022-12-11T03:48:04.672Z,100319.22
2022-12-11T03:50:30.791Z,100307.31
2022-12-11T03:52:56.948Z,100305.63
2022-12-11T03:55:23.100Z,100300.53
2022-12-11T03:57:49.213Z,100305.63
2022-12-11T04:00:15.353Z,100304.78
2022-12-11T04:02:41.496Z,100305.69
2022-12-11T04:05:07.923Z,100299.75
2022-12-11T04:07:34.308Z,100302.34
2022-12-11T04:10:00.422Z,100304.06
2022-12-11T04:12:26.548Z,100309.16
2022-12-11T04:14:52.735Z,100315.16
2022-12-11T04:17:18.846Z,100319.44
2022-12-11T04:19:47.371Z,100305.78
2022-12-11T04:22:13.503Z,100304.09
2022-12-11T04:24:39.661Z,100303.25
2022-12-11T04:27:05.820Z,100303.28
2022-12-11T04:29:31.963Z,100309.22
2022-12-11T04:31:58.140Z,100305.84
2022-12-11T04:34:24.290Z,100304.13
2022-12-11T04:36:50.486Z,100308.38
2022-12-11T04:39:16.659Z,100305.84
2022-12-11T04:41:42.874Z,100304.13
2022-12-11T04:44:09.016Z,100299.91
2022-12-11T04:46:35.201Z,100301.56
2022-12-11T04:49:01.409Z,100303.31
2022-12-11T04:51:27.585Z,100305.84
2022-12-11T04:53:53.758Z,100297.34
2022-12-11T04:56:19.919Z,100297.34
2022-12-11T04:58:46.067Z,100289.63
2022-12-11T05:01:12.242Z,100291.38
2022-12-11T05:03:38.435Z,100293.06
2022-12-11T05:06:04.617Z,100288.81
2022-12-11T05:08:30.727Z,100287.97
2022-12-11T05:10:56.846Z,100287.09
2022-12-11T05:13:23.115Z,100289.66
2022-12-11T05:15:49.244Z,100288.78
2022-12-11T05:18:15.467Z,100287.97
2022-12-11T05:20:41.619Z,100280.31
2022-12-11T05:23:07.765Z,100279.44
2022-12-11T05:25:33.978Z,100280.28
2022-12-11T05:28:00.159Z,100281.97
2022-12-11T05:30:26.336Z,100281.97
2022-12-11T05:32:52.485Z,100273.47
2022-12-11T05:35:18.642Z,100273.47
2022-12-11T05:37:44.815Z,100269.22
2022-12-11T05:40:11.001Z,100264.94
2022-12-11T05:42:37.129Z,100270.06
2022-12-11T05:45:03.327Z,100270.91
2022-12-11T05:47:29.542Z,100271.75
2022-12-11T05:49:55.739Z,100270.91
2022-12-11T05:52:21.904Z,100262.38
2022-12-11T05:54:48.043Z,100264.09
2022-12-11T05:57:14.212Z,100262.38
2022-12-11T05:59:40.365Z,100267.53
2022-12-11T06:02:06.639Z,100267.50
2022-12-11T06:04:32.830Z,100264.09
2022-12-11T06:06:58.999Z,100270.88
2022-12-11T06:09:25.737Z,100271.72
2022-12-11T06:11:51.909Z,100266.59
2022-12-11T06:14:18.060Z,100278.50
2022-12-11T06:16:44.207Z,100272.53
2022-12-11T06:19:10.375Z,100277.66
2022-12-11T06:21:36.556Z,100275.13
2022-12-11T06:24:02.715Z,100272.59
2022-12-11T06:26:28.854Z,100271.72
2022-12-11T06:28:54.981Z,100265.78
2022-12-11T06:31:21.217Z,100255.53
2022-12-11T06:33:47.402Z,100260.66
2022-12-11T06:36:13.536Z,100256.41
2022-12-11T06:38:39.686Z,100259.81
2022-12-11T06:41:05.860Z,100255.53
2022-12-11T06:43:32.010Z,100247.00
2022-12-11T06:46:03.581Z,100246.09
2022-12-11T06:48:30.242Z,100240.97
2022-12-11T06:50:56.435Z,100241.81
2022-12-11T06:53:22.567Z,100246.00
2022-12-11T06:55:48.680Z,100237.41
2022-12-11T06:58:14.834Z,100244.19
2022-12-11T07:00:41.021Z,100244.97
2022-12-11T07:03:07.199Z,100239.81
2022-12-11T07:05:33.331Z,100242.28
2022-12-11T07:07:59.547Z,100243.94
2022-12-11T07:10:25.759Z,100250.69
2022-12-11T07:12:51.887Z,100254.03
2022-12-11T07:15:18.015Z,100252.31
2022-12-11T07:17:44.202Z,100253.16
2022-12-11T07:20:10.321Z,100259.91
2022-12-11T07:22:38.373Z,100253.19
2022-12-11T07:25:08.081Z,100261.63
2022-12-11T07:27:34.459Z,100263.34
2022-12-11T07:30:00.624Z,100265.09
2022-12-11T07:32:26.918Z,100264.22
2022-12-11T07:34:53.235Z,100272.69
2022-12-11T07:37:19.363Z,100270.94
2022-12-11T07:39:45.568Z,100279.38
2022-12-11T07:42:11.742Z,100287.03
2022-12-11T07:44:37.885Z,100292.13
2022-12-11T07:47:04.024Z,100294.66
2022-12-11T07:49:30.181Z,100295.56
2022-12-11T07:51:56.347Z,100289.69
2022-12-11T07:54:22.525Z,100287.16
2022-12-11T07:56:53.381Z,100282.97
2022-12-11T07:59:19.915Z,100294.97
2022-12-11T08:01:46.028Z,100288.25
2022-12-11T08:04:12.168Z,100287.50
2022-12-11T08:06:38.451Z,100289.34
2022-12-11T08:09:04.597Z,100292.84
2022-12-11T08:11:30.737Z,100286.09
2022-12-11T08:13:56.935Z,100295.50
2022-12-11T08:16:23.182Z,100297.28
2022-12-11T08:18:49.383Z,100288.78
2022-12-11T08:21:15.620Z,100288.81
2022-12-11T08:23:41.748Z,100287.97
2022-12-11T08:26:07.867Z,100297.34
2022-12-11T08:28:34.041Z,100288.81
2022-12-11T08:31:00.220Z,100287.94
2022-12-11T08:33:26.444Z,100287.09
2022-12-11T08:35:52.563Z,100276.84
2022-12-11T08:38:25.018Z,100274.28
2022-12-11T08:40:51.693Z,100275.09
2022-12-11T08:43:17.819Z,100263.19
2022-12-11T08:45:44.003Z,100257.22
2022-12-11T08:48:10.254Z,100260.63
2022-12-11T08:50:36.473Z,100264.03
2022-12-11T08:53:02.646Z,100267.38
2022-12-11T08:55:28.826Z,100263.91
2022-12-11T08:57:55.014Z,100250.19
2022-12-11T09:00:21.141Z,100256.09
2022-12-11T09:02:47.496Z,100253.47
2022-12-11T09:05:13.835Z,100237.16
2022-12-11T09:07:40.168Z,100245.59
2022-12-11T09:10:06.441Z,100239.50
2022-12-11T09:12:32.602Z,100237.66
2022-12-11T09:14:58.774Z,100235.91
2022-12-11T09:17:24.968Z,100233.31
2022-12-11T09:19:51.134Z,100236.66
2022-12-11T09:22:17.453Z,100238.28
2022-12-11T09:24:43.652Z,100229.41
2022-12-11T09:27:09.817Z,100237.75
2022-12-11T09:29:36.000Z,100238.38
2022-12-11T09:32:02.124Z,100235.72
2022-12-11T09:34:29.609Z,100235.91
2022-12-11T09:36:55.915Z,100233.41
2022-12-11T09:39:22.043Z,100228.41
2022-12-11T09:41:48.220Z,100244.78
2022-12-11T09:44:14.413Z,100240.81
2022-12-11T09:46:40.632Z,100234.84
2022-12-11T09:49:06.877Z,100240.97
2022-12-11T09:51:33.041Z,100222.34
2022-12-11T09:53:59.228Z,100225.75
2022-12-11T09:56:25.397Z,100221.34
2022-12-11T09:58:51.512Z,100218.72
2022-12-11T10:01:17.771Z,100219.47
2022-12-11T10:03:43.962Z,100218.53
2022-12-11T10:06:10.109Z,100214.19
2022-12-11T10:08:36.312Z,100218.41
2022-12-11T10:11:02.472Z,100212.44
2022-12-11T10:13:28.693Z,100208.94
2022-12-11T10:15:54.881Z,100200.50
2022-12-11T10:18:21.022Z,100204.75
2022-12-11T10:20:48.374Z,100206.50
2022-12-11T10:23:14.554Z,100211.59
2022-12-11T10:25:40.796Z,100210.88
2022-12-11T10:28:06.995Z,100203.94
2022-12-11T10:30:34.701Z,100204.00
2022-12-11T10:33:01.142Z,100198.06
2022-12-11T10:35:27.270Z,100199.78
2022-12-11T10:37:53.465Z,100190.34
2022-12-11T10:40:19.649Z,100191.19
2022-12-11T10:42:45.820Z,100189.41
2022-12-11T10:45:12.164Z,100181.66
2022-12-11T10:53:05.312Z,100164.69
2022-12-11T10:55:33.872Z,100163.44
2022-12-11T10:58:03.200Z,100155.88
2022-12-11T11:00:35.257Z,100151.34
2022-12-11T11:03:05.859Z,100153.34
2022-12-11T11:05:32.146Z,100149.78
2022-12-11T11:08:01.084Z,100149.09
2022-12-11T11:13:15.821Z,100151.38
2022-12-11T11:15:42.019Z,100147.81
2022-12-11T11:18:08.233Z,100155.81
2022-12-11T11:20:34.406Z,100147.41
2022-12-11T11:23:00.580Z,100151.81
2022-12-11T11:25:26.722Z,100140.78
2022-12-11T11:27:52.842Z,100138.28
2022-12-11T11:30:19.058Z,100130.59
2022-12-11T11:32:45.206Z,100138.06
2022-12-11T11:35:11.805Z,100136.28
2022-12-11T11:37:38.295Z,100138.22
2022-12-11T11:40:04.498Z,100129.59
2022-12-11T11:42:30.647Z,100128.53
2022-12-11T11:44:56.815Z,100122.44
2022-12-11T11:47:22.955Z,100120.72
2022-12-11T11:49:49.085Z,100117.81
2022-12-11T11:52:15.214Z,100125.16
2022-12-11T11:54:41.393Z,100122.56
2022-12-11T11:57:07.505Z,100118.28
2022-12-11T11:59:33.663Z,100112.53
2022-12-11T12:01:59.865Z,100120.34
2022-12-11T12:04:26.037Z,100117.63
2022-12-11T12:06:52.184Z,100113.66
2022-12-11T12:09:18.333Z,100125.59
2022-12-11T12:11:44.539Z,100122.81
2022-12-11T12:14:35.813Z,100125.16
2022-12-11T12:16:56.844Z,100126.31
2022-12-11T12:19:23.067Z,100125.41
2022-12-11T12:21:49.198Z,100117.78
2022-12-11T12:24:15.334Z,100124.28
2022-12-11T12:26:41.495Z,100119.00
2022-12-11T12:29:07.623Z,100119.69
2022-12-11T12:31:33.799Z,100112.88
2022-12-11T12:33:59.995Z,100116.22
2022-12-11T12:36:26.218Z,100112.72
2022-12-11T12:38:52.364Z,100103.19
2022-12-11T12:41:18.479Z,100104.88
2022-12-11T12:43:44.753Z,100102.25
2022-12-11T12:46:11.069Z,100096.06
2022-12-11T12:48:37.322Z,100097.38
2022-12-11T12:51:03.559Z,100103.38
2022-12-11T12:53:29.760Z,100102.81
2022-12-11T12:55:55.904Z,100093.13
2022-12-11T12:58:22.069Z,100101.03
2022-12-11T13:00:48.277Z,100090.53
2022-12-11T13:03:14.524Z,100088.00
2022-12-11T13:05:41.811Z,100077.75
2022-12-11T13:08:07.984Z,100076.09
2022-12-11T13:10:34.198Z,100083.66
2022-12-11T13:13:00.405Z,100082.25
2022-12-11T13:15:26.573Z,100084.78
2022-12-11T13:17:52.743Z,100088.41
2022-12-11T13:20:18.987Z,100084.88
2022-12-11T13:22:45.158Z,100082.38
2022-12-11T13:25:11.547Z,100082.47
2022-12-11T13:27:38.028Z,100091.94
2022-12-11T13:30:06.683Z,100091.91
2022-12-11T13:32:32.810Z,100099.59
2022-12-11T13:34:58.957Z,100096.22
2022-12-11T13:37:25.077Z,100104.81
2022-12-11T13:39:51.187Z,100097.13
2022-12-11T13:42:17.605Z,100098.78
2022-12-11T13:44:46.569Z,100100.56
2022-12-11T13:47:12.770Z,100105.59
2022-12-11T13:49:38.885Z,100104.81
2022-12-11T13:52:05.061Z,100110.81
2022-12-11T13:54:31.272Z,100106.59
2022-12-11T13:57:00.240Z,100111.72
2022-12-11T13:59:26.507Z,100110.94
2022-12-11T14:01:52.694Z,100111.75
2022-12-11T14:04:18.840Z,100120.34
2022-12-11T14:06:44.954Z,100113.50
2022-12-11T14:09:11.102Z,100125.53
2022-12-11T14:11:37.231Z,100123.03
2022-12-11T14:14:03.366Z,100122.19
2022-12-11T14:16:29.548Z,100122.16
2022-12-11T14:18:55.750Z,100126.38
2022-12-11T14:21:21.893Z,100122.06
2022-12-11T14:23:48.012Z,100123.69
2022-12-11T14:26:17.589Z,100127.25
2022-12-11T14:28:51.218Z,100129.84
2022-12-11T14:31:17.988Z,100128.09
2022-12-11T14:33:47.834Z,100135.91
2022-12-11T14:36:13.939Z,100129.06
2022-12-11T14:38:40.085Z,100130.09
2022-12-11T14:41:06.209Z,100141.31
2022-12-11T14:43:32.386Z,100143.97
2022-12-11T14:45:58.620Z,100141.41
2022-12-11T14:48:24.788Z,100146.56
2022-12-11T14:50:50.941Z,100148.31
2022-12-11T14:53:17.099Z,100145.75
2022-12-11T14:55:43.244Z,100146.72
2022-12-11T14:58:09.428Z,100146.75
2022-12-11T15:00:35.552Z,100146.78
2022-12-11T15:03:01.771Z,100138.25
2022-12-11T15:05:27.951Z,100145.97
2022-12-11T15:07:54.191Z,100140.81
2022-12-11T15:10:20.578Z,100146.00
2022-12-11T15:12:46.699Z,100157.16
2022-12-11T15:15:12.915Z,100155.53
2022-12-11T15:17:39.075Z,100157.28
2022-12-11T15:20:05.245Z,100153.06
2022-12-11T15:22:34.778Z,100154.00
2022-12-11T15:25:00.893Z,100153.19
2022-12-11T15:27:27.060Z,100155.78
2022-12-11T15:29:53.256Z,100160.91
2022-12-11T15:32:19.418Z,100166.09
2022-12-11T15:34:45.577Z,100169.53
2022-12-11T15:37:11.865Z,100164.38
2022-12-11T15:39:38.049Z,100161.81
2022-12-11T15:42:04.202Z,100169.50
2022-12-11T15:44:30.374Z,100171.22
2022-12-11T15:46:56.542Z,100171.22
2022-12-11T15:49:22.713Z,100171.25
2022-12-11T15:51:48.820Z,100166.97
2022-12-11T15:54:14.979Z,100169.53
2022-12-11T15:56:41.112Z,100179.78
2022-12-11T15:59:07.258Z,100173.78
2022-12-11T16:01:33.455Z,100175.50
2022-12-11T16:04:04.675Z,100174.72
2022-12-11T16:06:31.478Z,100183.22
2022-12-11T16:08:57.644Z,100185.84
2022-12-11T16:11:23.840Z,100178.19
2022-12-11T16:13:50.013Z,100182.44
2022-12-11T16:16:16.255Z,100189.31
2022-12-11T16:18:42.424Z,100185.00
2022-12-11T16:21:08.540Z,100180.75
2022-12-11T16:23:34.719Z,100173.94
2022-12-11T16:26:00.842Z,100180.78
2022-12-11T16:28:27.010Z,100176.56
2022-12-11T16:30:53.217Z,100181.69
2022-12-11T16:33:19.379Z,100174.84
2022-12-11T16:35:45.590Z,100178.22
2022-12-11T16:38:11.778Z,100175.63
2022-12-11T16:40:37.971Z,100176.47
2022-12-11T16:43:04.150Z,100184.06
2022-12-11T16:45:30.301Z,100179.69
2022-12-11T16:47:56.645Z,100168.50
2022-12-11T16:50:22.881Z,100170.28
2022-12-11T16:52:49.150Z,100173.75
2022-12-11T16:55:15.475Z,100166.09
2022-12-11T16:57:41.702Z,100165.28
2022-12-11T17:00:07.848Z,100166.13
2022-12-11T17:02:34.081Z,100168.72
2022-12-11T17:05:00.245Z,100160.09
2022-12-11T17:07:26.428Z,100158.41
2022-12-11T17:09:52.548Z,100155.09
2022-12-11T17:12:18.787Z,100150.03
2022-12-11T17:14:44.934Z,100157.81
2022-12-11T17:17:11.063Z,100154.47
2022-12-11T17:19:37.204Z,100157.88
2022-12-11T17:22:03.369Z,100162.97
2022-12-11T17:24:29.586Z,100161.25
2022-12-11T17:26:55.725Z,100168.88
2022-12-11T17:29:21.878Z,100168.84
2022-12-11T17:31:48.057Z,100168.84
2022-12-11T17:34:14.222Z,100171.38
2022-12-11T17:36:40.405Z,100175.63
2022-12-11T17:39:06.561Z,100174.75
2022-12-11T17:41:32.716Z,100174.75
2022-12-11T17:43:58.866Z,100177.28
2022-12-11T17:46:25.049Z,100180.69
2022-12-11T17:48:51.248Z,100174.69
2022-12-11T17:51:17.405Z,100176.34
2022-12-11T17:53:43.600Z,100174.66
2022-12-11T17:56:09.704Z,100173.78
2022-12-11T17:58:35.843Z,100172.09
2022-12-11T18:01:01.979Z,100169.50
2022-12-11T18:03:28.494Z,100160.94
2022-12-11T18:05:54.736Z,100168.66
2022-12-11T18:08:20.891Z,100154.97
2022-12-11T18:10:47.040Z,100154.91
2022-12-11T18:13:13.193Z,100150.63
2022-12-11T18:15:39.436Z,100149.78
2022-12-11T18:18:05.595Z,100152.34
2022-12-11T18:20:31.730Z,100150.72
2022-12-11T18:22:57.847Z,100150.75
2022-12-11T18:25:23.997Z,100153.34
2022-12-11T18:27:50.370Z,100157.59
2022-12-11T18:30:16.517Z,100159.38
2022-12-11T18:32:42.713Z,100154.34
2022-12-11T18:35:08.936Z,100152.69
2022-12-11T18:37:35.161Z,100155.16
2022-12-11T18:40:01.362Z,100153.44
2022-12-11T18:42:34.626Z,100151.69
2022-12-11T18:45:00.771Z,100156.00
2022-12-11T18:47:26.959Z,100153.44
2022-12-11T18:49:53.084Z,100152.59
2022-12-11T18:52:19.212Z,100159.34
2022-12-11T18:54:45.370Z,100160.19
2022-12-11T18:57:11.549Z,100161.84
2022-12-11T18:59:37.684Z,100151.59
2022-12-11T19:02:03.821Z,100147.31
2022-12-11T19:04:30.021Z,100158.41
2022-12-11T19:06:56.201Z,100156.78
2022-12-11T19:09:22.321Z,100167.88
2022-12-11T19:11:48.512Z,100160.19
2022-12-11T19:14:14.657Z,100155.84
2022-12-11T19:16:40.817Z,100163.53
2022-12-11T19:19:06.969Z,100165.22
2022-12-11T19:21:33.083Z,100165.22
2022-12-11T19:23:59.264Z,100161.81
2022-12-11T19:26:25.462Z,100161.72
2022-12-11T19:28:51.603Z,100156.56
2022-12-11T19:31:17.767Z,100156.53
2022-12-11T19:33:43.984Z,100158.09
2022-12-11T19:36:10.189Z,100156.50
2022-12-11T19:38:36.331Z,100152.22
2022-12-11T19:41:02.543Z,100147.94
2022-12-11T19:43:28.721Z,100153.94
2022-12-11T19:45:54.847Z,100156.53
2022-12-11T19:48:21.002Z,100159.09
2022-12-11T19:50:47.214Z,100163.38
2022-12-11T19:53:13.359Z,100153.13
2022-12-11T19:55:39.521Z,100153.13
2022-12-11T19:58:05.688Z,100155.69
2022-12-11T20:00:31.895Z,100159.09
2022-12-11T20:02:58.104Z,100149.66
2022-12-11T20:05:24.330Z,100154.72
2022-12-11T20:07:50.503Z,100155.47
2022-12-11T20:10:16.714Z,100154.75
2022-12-11T20:12:42.887Z,100147.91
2022-12-11T20:15:09.112Z,100151.38
2022-12-11T20:17:35.363Z,100156.50
2022-12-11T20:20:01.591Z,100153.91
2022-12-11T20:22:27.794Z,100156.50
2022-12-11T20:24:54.004Z,100159.00
2022-12-11T20:27:20.186Z,100163.31
2022-12-11T20:29:46.328Z,100167.66
2022-12-11T20:32:12.684Z,100162.56
2022-12-11T20:34:38.916Z,100156.53
2022-12-11T20:37:05.027Z,100163.34
2022-12-11T20:39:31.235Z,100164.25
2022-12-11T20:41:57.374Z,100167.72
2022-12-11T20:44:23.541Z,100160.91
2022-12-11T20:46:49.692Z,100156.63
2022-12-11T20:49:15.821Z,100169.44
2022-12-11T20:51:41.946Z,100158.31
2022-12-11T20:54:08.339Z,100163.41
2022-12-11T20:56:34.472Z,100166.78
2022-12-11T20:59:00.675Z,100161.66
2022-12-11T21:01:26.866Z,100161.69
2022-12-11T21:03:53.008Z,100168.50
2022-12-11T21:06:19.195Z,100167.69
2022-12-11T21:08:45.354Z,100166.78
2022-12-11T21:11:11.526Z,100170.16
2022-12-11T21:13:37.692Z,100161.50
2022-12-11T21:16:03.897Z,100165.91
2022-12-11T21:18:30.083Z,100171.91
2022-12-11T21:20:56.219Z,100173.66
2022-12-11T21:23:22.380Z,100163.41
2022-12-11T21:25:48.552Z,100166.78
2022-12-11T21:28:14.664Z,100170.22
2022-12-11T21:30:40.837Z,100169.31
2022-12-11T21:33:07.044Z,100166.78
2022-12-11T21:35:33.222Z,100169.38
2022-12-11T21:37:59.417Z,100170.22
2022-12-11T21:40:25.560Z,100165.13
2022-12-11T21:42:51.756Z,100173.69
2022-12-11T21:48:05.034Z,100171.97
2022-12-11T21:50:31.201Z,100178.81
2022-12-11T21:52:57.393Z,100185.63
2022-12-11T21:55:23.583Z,100186.47
2022-12-11T21:57:49.746Z,100185.56
2022-12-11T22:00:15.926Z,100188.97
2022-12-11T22:02:42.245Z,100183.84
2022-12-11T22:05:08.547Z,100184.72
2022-12-11T22:07:34.720Z,100184.72
2022-12-11T22:10:00.919Z,100191.56
2022-12-11T22:12:27.129Z,100198.41
2022-12-11T22:14:53.294Z,100182.22
2022-12-11T22:17:19.433Z,100183.09
2022-12-11T22:19:45.602Z,100188.22
2022-12-11T22:22:11.889Z,100189.06
2022-12-11T22:24:38.076Z,100195.06
2022-12-11T22:27:04.252Z,100193.34
2022-12-11T22:29:30.406Z,100190.75
2022-12-11T22:31:56.573Z,100195.84
2022-12-11T22:34:22.773Z,100194.13
2022-12-11T22:36:49.193Z,100193.13
2022-12-11T22:39:15.352Z,100191.53
2022-12-11T22:41:41.535Z,100189.00
2022-12-11T22:44:07.722Z,100192.41
2022-12-11T22:46:33.885Z,100187.34
2022-12-11T22:49:00.046Z,100189.88
2022-12-11T22:51:26.248Z,100185.66
2022-12-11T22:53:52.396Z,100175.44
2022-12-11T22:56:18.567Z,100200.97
2022-12-11T22:58:44.687Z,100190.78
2022-12-11T23:01:10.834Z,100199.38
2022-12-11T23:03:37.041Z,100197.66
2022-12-11T23:06:05.417Z,100201.00
2022-12-11T23:08:31.694Z,100199.31
2022-12-11T23:10:57.932Z,100203.59
2022-12-11T23:13:24.063Z,100205.31
2022-12-11T23:15:50.193Z,100211.34
2022-12-11T23:18:16.366Z,100208.78
2022-12-11T23:20:42.511Z,100210.50
2022-12-11T23:23:08.670Z,100207.09
2022-12-11T23:25:34.845Z,100209.66
2022-12-11T23:28:00.973Z,100206.25
2022-12-11T23:30:27.140Z,100203.69
2022-12-11T23:32:53.301Z,100210.47
2022-12-11T23:35:19.414Z,100205.38
2022-12-11T23:37:45.529Z,100214.78
2022-12-11T23:40:11.699Z,100214.78
2022-12-11T23:42:37.878Z,100209.66
2022-12-11T23:45:04.059Z,100212.19
2022-12-11T23:47:30.255Z,100211.31
2022-12-11T23:49:56.374Z,100212.22
2022-12-11T23:52:22.546Z,100216.50
2022-12-11T23:54:48.744Z,100214.81
2022-12-11T23:57:14.911Z,100216.50
2022-12-11T23:59:41.081Z,100224.22
